createdAt,value
2017-07-03T00:01:01.849Z,11.7
2017-07-03T00:02:20.561Z,11.7
2017-07-03T00:03:39.240Z,11.7
2017-07-03T00:04:57.911Z,11.7
2017-07-03T00:06:16.640Z,11.6
2017-07-03T00:07:35.322Z,11.6
2017-07-03T00:08:54.066Z,11.7
2017-07-03T00:10:12.757Z,11.8
2017-07-03T00:11:31.428Z,11.9
2017-07-03T00:12:50.133Z,12.1
2017-07-03T00:14:08.827Z,12.2
2017-07-03T00:15:27.556Z,12.3
2017-07-03T00:16:46.229Z,12.3
2017-07-03T00:18:04.896Z,12.3
2017-07-03T00:19:23.588Z,12.1
2017-07-03T00:20:42.303Z,12
2017-07-03T00:22:00.978Z,11.9
2017-07-03T00:23:19.651Z,11.7
2017-07-03T00:24:38.370Z,11.6
2017-07-03T00:25:57.037Z,11.5
2017-07-03T00:27:15.711Z,11.5
2017-07-03T00:28:34.379Z,11.5
2017-07-03T00:29:53.061Z,11.5
2017-07-03T00:31:11.753Z,11.4
2017-07-03T00:32:30.476Z,11.3
2017-07-03T00:33:49.163Z,11.3
2017-07-03T00:35:07.848Z,11.3
2017-07-03T00:36:26.564Z,11.3
2017-07-03T00:37:45.248Z,11.3
2017-07-03T00:39:03.950Z,11.2
2017-07-03T00:40:22.635Z,11.2
2017-07-03T00:41:41.339Z,11.1
2017-07-03T00:43:00.017Z,11
2017-07-03T00:44:18.686Z,11
2017-07-03T00:45:37.429Z,11
2017-07-03T00:46:56.160Z,11.1
2017-07-03T00:48:14.880Z,11.2
2017-07-03T00:49:33.563Z,11.3
2017-07-03T00:50:52.297Z,11.4
2017-07-03T00:52:10.962Z,11.6
2017-07-03T00:53:29.635Z,11.7
2017-07-03T00:54:48.341Z,11.6
2017-07-03T00:56:07.084Z,11.5
2017-07-03T00:57:25.768Z,11.3
2017-07-03T00:58:44.444Z,11.2
2017-07-03T01:00:03.117Z,11.1
2017-07-03T01:01:21.808Z,11
2017-07-03T01:02:40.509Z,11
2017-07-03T01:03:59.180Z,10.9
2017-07-03T01:05:17.853Z,10.9
2017-07-03T01:06:36.586Z,10.9
2017-07-03T01:07:55.281Z,11
2017-07-03T01:09:13.997Z,11.2
2017-07-03T01:10:32.669Z,11.3
2017-07-03T01:11:51.402Z,11.4
2017-07-03T01:13:10.070Z,11.4
2017-07-03T01:14:28.784Z,11.5
2017-07-03T01:15:47.455Z,11.5
2017-07-03T01:17:06.184Z,11.5
2017-07-03T01:18:24.876Z,11.4
2017-07-03T01:19:43.562Z,11.2
2017-07-03T01:21:02.235Z,11
2017-07-03T01:22:20.911Z,10.9
2017-07-03T01:23:39.626Z,10.8
2017-07-03T01:24:58.306Z,10.7
2017-07-03T01:26:17.017Z,10.7
2017-07-03T01:27:35.718Z,10.6
2017-07-03T01:28:54.390Z,10.6
2017-07-03T01:30:13.060Z,10.5
2017-07-03T01:31:31.730Z,10.4
2017-07-03T01:32:50.416Z,10.4
2017-07-03T01:34:09.124Z,10.3
2017-07-03T01:35:27.799Z,10.3
2017-07-03T01:36:46.465Z,10.3
2017-07-03T01:38:05.159Z,10.2
2017-07-03T01:39:23.848Z,10.2
2017-07-03T01:40:42.564Z,10.1
2017-07-03T01:42:01.281Z,10.1
2017-07-03T01:43:19.964Z,10.1
2017-07-03T01:44:38.633Z,10.1
2017-07-03T01:45:57.358Z,10.1
2017-07-03T01:47:16.083Z,10
2017-07-03T01:48:34.759Z,10
2017-07-03T01:49:53.447Z,10
2017-07-03T01:51:12.115Z,10
2017-07-03T01:52:30.785Z,10.1
2017-07-03T01:53:49.476Z,10.1
2017-07-03T01:55:08.148Z,10
2017-07-03T01:56:26.821Z,10
2017-07-03T01:57:45.489Z,10
2017-07-03T01:59:04.216Z,10
2017-07-03T02:00:22.886Z,10
2017-07-03T02:01:41.588Z,9.9
2017-07-03T02:03:00.254Z,9.9
2017-07-03T02:04:19.002Z,9.8
2017-07-03T02:05:37.673Z,9.8
2017-07-03T02:06:56.328Z,9.8
2017-07-03T02:08:14.996Z,9.8
2017-07-03T02:09:33.652Z,9.9
2017-07-03T02:10:52.390Z,9.9
2017-07-03T02:12:11.039Z,9.9
2017-07-03T02:13:29.686Z,9.9
2017-07-03T02:14:48.400Z,9.9
2017-07-03T02:16:07.101Z,9.9
2017-07-03T02:17:25.810Z,9.9
2017-07-03T02:18:44.466Z,9.8
2017-07-03T02:20:03.138Z,9.8
2017-07-03T02:21:21.820Z,9.8
2017-07-03T02:22:40.498Z,9.8
2017-07-03T02:23:59.206Z,9.8
2017-07-03T02:25:17.902Z,9.7
2017-07-03T02:26:36.581Z,9.8
2017-07-03T02:27:55.269Z,9.8
2017-07-03T02:29:13.970Z,9.8
2017-07-03T02:30:32.632Z,9.8
2017-07-03T02:31:51.292Z,9.8
2017-07-03T02:33:09.954Z,9.8
2017-07-03T02:34:28.658Z,9.8
2017-07-03T02:35:47.401Z,9.8
2017-07-03T02:37:06.062Z,9.8
2017-07-03T02:38:24.727Z,9.8
2017-07-03T02:39:43.390Z,9.8
2017-07-03T02:41:02.052Z,9.8
2017-07-03T02:42:20.719Z,9.8
2017-07-03T02:43:39.367Z,9.7
2017-07-03T02:44:58.015Z,9.7
2017-07-03T02:46:16.694Z,9.7
2017-07-03T02:47:35.346Z,9.7
2017-07-03T02:48:54.049Z,9.7
2017-07-03T02:50:12.756Z,9.6
2017-07-03T02:51:31.430Z,9.6
2017-07-03T02:52:50.090Z,9.6
2017-07-03T02:54:08.772Z,9.5
2017-07-03T02:55:27.475Z,9.5
2017-07-03T02:56:46.180Z,9.5
2017-07-03T02:58:04.832Z,9.5
2017-07-03T02:59:23.541Z,9.5
2017-07-03T03:00:42.195Z,9.4
2017-07-03T03:02:00.885Z,9.3
2017-07-03T03:03:19.548Z,9.3
2017-07-03T03:04:38.206Z,9.2
2017-07-03T03:05:56.865Z,9.2
2017-07-03T03:07:15.560Z,9.2
2017-07-03T03:08:34.250Z,9.2
2017-07-03T03:09:52.915Z,9.1
2017-07-03T03:11:11.620Z,9.1
2017-07-03T03:12:30.322Z,9
2017-07-03T03:13:49.007Z,9
2017-07-03T03:15:07.664Z,9.1
2017-07-03T03:16:26.326Z,9.1
2017-07-03T03:17:44.995Z,9
2017-07-03T03:19:03.654Z,9
2017-07-03T03:20:22.398Z,9.1
2017-07-03T03:21:41.105Z,9.1
2017-07-03T03:22:59.790Z,9.1
2017-07-03T03:24:18.459Z,9.1
2017-07-03T03:25:37.116Z,9.2
2017-07-03T03:26:55.775Z,9.2
2017-07-03T03:28:14.437Z,9.2
2017-07-03T03:29:33.089Z,9.1
2017-07-03T03:30:51.739Z,9.2
2017-07-03T03:32:10.432Z,9.2
2017-07-03T03:33:29.130Z,9.3
2017-07-03T03:34:47.801Z,9.4
2017-07-03T03:36:06.512Z,9.4
2017-07-03T03:37:25.163Z,9.5
2017-07-03T03:38:43.883Z,9.6
2017-07-03T03:40:02.554Z,9.6
2017-07-03T03:41:21.261Z,9.6
2017-07-03T03:42:39.935Z,9.6
2017-07-03T03:43:58.612Z,9.6
2017-07-03T03:45:17.318Z,9.5
2017-07-03T03:46:36.028Z,9.5
2017-07-03T03:47:54.693Z,9.5
2017-07-03T03:49:13.360Z,9.5
2017-07-03T03:50:32.013Z,9.5
2017-07-03T03:51:50.713Z,9.5
2017-07-03T03:53:09.364Z,9.5
2017-07-03T03:54:28.041Z,9.4
2017-07-03T03:55:46.769Z,9.4
2017-07-03T03:57:05.423Z,9.4
2017-07-03T03:58:24.107Z,9.5
2017-07-03T03:59:42.773Z,9.5
2017-07-03T04:01:01.433Z,9.6
2017-07-03T04:02:20.090Z,9.6
2017-07-03T04:03:38.812Z,9.6
2017-07-03T04:04:57.498Z,9.6
2017-07-03T04:06:16.179Z,9.6
2017-07-03T04:07:34.829Z,9.6
2017-07-03T04:08:53.483Z,9.6
2017-07-03T04:10:12.163Z,9.6
2017-07-03T04:11:30.872Z,9.7
2017-07-03T04:12:49.541Z,9.7
2017-07-03T04:14:08.201Z,9.8
2017-07-03T04:15:26.879Z,9.8
2017-07-03T04:16:45.542Z,9.9
2017-07-03T04:18:04.229Z,9.9
2017-07-03T04:19:22.888Z,9.9
2017-07-03T04:20:41.579Z,10
2017-07-03T04:22:00.249Z,10.1
2017-07-03T04:23:18.991Z,10.1
2017-07-03T04:24:37.713Z,10.1
2017-07-03T04:25:56.437Z,10.2
2017-07-03T04:27:15.132Z,10.2
2017-07-03T04:28:33.855Z,10.3
2017-07-03T04:29:52.568Z,10.4
2017-07-03T04:31:11.270Z,10.4
2017-07-03T04:32:29.942Z,10.5
2017-07-03T04:33:48.608Z,10.5
2017-07-03T04:35:07.336Z,10.5
2017-07-03T04:36:26.042Z,10.6
2017-07-03T04:37:44.713Z,10.7
2017-07-03T04:39:03.433Z,10.7
2017-07-03T04:40:22.102Z,10.7
2017-07-03T04:41:40.785Z,10.8
2017-07-03T04:42:59.484Z,10.8
2017-07-03T04:44:18.201Z,10.9
2017-07-03T04:45:36.875Z,10.9
2017-07-03T04:46:55.604Z,10.9
2017-07-03T04:48:14.276Z,11
2017-07-03T04:49:32.952Z,11
2017-07-03T04:50:51.622Z,11
2017-07-03T04:52:10.346Z,11.1
2017-07-03T04:53:29.077Z,11.2
2017-07-03T04:54:47.749Z,11.2
2017-07-03T04:56:06.432Z,11.3
2017-07-03T04:57:25.113Z,11.3
2017-07-03T04:58:43.819Z,11.4
2017-07-03T05:00:02.496Z,11.5
2017-07-03T05:01:21.174Z,11.5
2017-07-03T05:02:39.914Z,11.6
2017-07-03T05:03:58.592Z,11.6
2017-07-03T05:05:17.322Z,11.7
2017-07-03T05:06:36.045Z,11.7
2017-07-03T05:07:54.733Z,11.9
2017-07-03T05:09:13.406Z,11.9
2017-07-03T05:10:32.104Z,12
2017-07-03T05:11:50.825Z,12
2017-07-03T05:13:09.517Z,12.1
2017-07-03T05:14:28.189Z,12.2
2017-07-03T05:15:46.911Z,12.2
2017-07-03T05:17:05.638Z,12.2
2017-07-03T05:18:24.375Z,12.2
2017-07-03T05:19:43.043Z,12.3
2017-07-03T05:21:01.721Z,12.3
2017-07-03T05:22:20.395Z,12.4
2017-07-03T05:23:39.110Z,12.5
2017-07-03T05:24:57.800Z,12.5
2017-07-03T05:26:16.477Z,12.6
2017-07-03T05:27:35.148Z,12.7
2017-07-03T05:28:53.849Z,12.7
2017-07-03T05:30:12.577Z,12.8
2017-07-03T05:31:31.253Z,12.8
2017-07-03T05:32:49.933Z,12.9
2017-07-03T05:34:08.617Z,12.9
2017-07-03T05:35:27.345Z,13
2017-07-03T05:36:46.009Z,13
2017-07-03T05:38:04.684Z,13.1
2017-07-03T05:39:23.372Z,13.2
2017-07-03T05:40:42.102Z,13.2
2017-07-03T05:42:00.775Z,13.3
2017-07-03T05:43:19.442Z,13.4
2017-07-03T05:44:38.124Z,13.5
2017-07-03T05:45:56.814Z,13.5
2017-07-03T05:47:15.486Z,13.5
2017-07-03T05:48:34.171Z,13.5
2017-07-03T05:49:52.882Z,13.4
2017-07-03T05:51:11.596Z,13.4
2017-07-03T05:52:30.322Z,13.3
2017-07-03T05:53:49.015Z,13.4
2017-07-03T05:55:07.702Z,13.6
2017-07-03T05:56:26.457Z,13.8
2017-07-03T05:57:45.156Z,14
2017-07-03T05:59:03.846Z,14.2
2017-07-03T06:00:22.573Z,14.3
2017-07-03T06:01:41.265Z,14.3
2017-07-03T06:02:59.946Z,14.5
2017-07-03T06:04:18.661Z,14.7
2017-07-03T06:05:37.407Z,14.9
2017-07-03T06:06:56.116Z,15
2017-07-03T06:08:14.790Z,15.2
2017-07-03T06:09:33.460Z,15.4
2017-07-03T06:10:52.147Z,15.7
2017-07-03T06:12:10.873Z,16
2017-07-03T06:13:29.598Z,16.1
2017-07-03T06:14:48.272Z,16.1
2017-07-03T06:16:06.988Z,16.1
2017-07-03T06:17:25.722Z,16.4
2017-07-03T06:18:44.405Z,16.7
2017-07-03T06:20:03.109Z,16.8
2017-07-03T06:21:21.799Z,16.8
2017-07-03T06:22:40.471Z,16.9
2017-07-03T06:23:59.159Z,17.1
2017-07-03T06:25:17.877Z,17.1
2017-07-03T06:26:36.618Z,16.9
2017-07-03T06:27:55.320Z,16.7
2017-07-03T06:29:14.026Z,16.5
2017-07-03T06:30:32.754Z,16.2
2017-07-03T06:31:51.484Z,16.1
2017-07-03T06:33:10.203Z,16
2017-07-03T06:34:28.918Z,16
2017-07-03T06:35:47.596Z,15.9
2017-07-03T06:37:06.328Z,15.8
2017-07-03T06:38:24.997Z,15.6
2017-07-03T06:39:43.689Z,15.3
2017-07-03T06:41:02.440Z,15
2017-07-03T06:42:21.169Z,15
2017-07-03T06:43:39.853Z,15.1
2017-07-03T06:44:58.570Z,15.4
2017-07-03T06:46:17.241Z,15.6
2017-07-03T06:47:35.930Z,15.7
2017-07-03T06:48:54.602Z,15.8
2017-07-03T06:50:13.310Z,15.8
2017-07-03T06:51:32.024Z,15.8
2017-07-03T06:52:50.712Z,16
2017-07-03T06:54:09.385Z,16.2
2017-07-03T06:55:28.052Z,16.6
2017-07-03T06:56:46.734Z,16.9
2017-07-03T06:58:05.426Z,17.3
2017-07-03T06:59:24.123Z,17.5
2017-07-03T07:00:42.831Z,17.6
2017-07-03T07:02:01.501Z,17.3
2017-07-03T07:03:20.213Z,16.9
2017-07-03T07:04:38.909Z,16.8
2017-07-03T07:05:57.582Z,16.5
2017-07-03T07:07:16.251Z,16.2
2017-07-03T07:08:34.933Z,15.9
2017-07-03T07:09:53.660Z,16.1
2017-07-03T07:11:12.420Z,16.5
2017-07-03T07:12:31.113Z,16.8
2017-07-03T07:13:49.789Z,17
2017-07-03T07:15:08.520Z,17.1
2017-07-03T07:16:27.232Z,17.5
2017-07-03T07:17:45.911Z,17.6
2017-07-03T07:19:04.619Z,17.5
2017-07-03T07:20:23.302Z,17.5
2017-07-03T07:21:41.978Z,17.2
2017-07-03T07:23:00.649Z,16.7
2017-07-03T07:24:19.349Z,16.4
2017-07-03T07:25:38.036Z,16.1
2017-07-03T07:26:56.722Z,15.9
2017-07-03T07:28:15.393Z,16
2017-07-03T07:29:34.094Z,16.3
2017-07-03T07:30:52.791Z,16.6
2017-07-03T07:32:11.515Z,16.8
2017-07-03T07:33:30.187Z,17
2017-07-03T07:34:48.879Z,17.1
2017-07-03T07:36:07.601Z,17.1
2017-07-03T07:37:26.272Z,17.2
2017-07-03T07:38:44.940Z,17.5
2017-07-03T07:40:03.664Z,17.7
2017-07-03T07:41:22.424Z,18.2
2017-07-03T07:42:41.109Z,18.5
2017-07-03T07:43:59.782Z,18.4
2017-07-03T07:45:18.458Z,18.6
2017-07-03T07:46:37.169Z,18.6
2017-07-03T07:47:55.856Z,18.8
2017-07-03T07:49:14.573Z,18.7
2017-07-03T07:50:33.299Z,18.3
2017-07-03T07:51:52.043Z,18
2017-07-03T07:53:10.714Z,17.8
2017-07-03T07:54:29.436Z,17.9
2017-07-03T07:55:48.114Z,17.9
2017-07-03T07:57:06.810Z,17.3
2017-07-03T07:58:25.543Z,16.8
2017-07-03T07:59:44.220Z,16.3
2017-07-03T08:01:02.922Z,16
2017-07-03T08:02:21.615Z,16.1
2017-07-03T08:03:40.334Z,16.4
2017-07-03T08:04:59.034Z,16.7
2017-07-03T08:06:17.702Z,17.1
2017-07-03T08:07:36.402Z,17.4
2017-07-03T08:08:55.101Z,17.8
2017-07-03T08:10:13.790Z,18.2
2017-07-03T08:11:32.462Z,18.3
2017-07-03T08:12:51.154Z,18.2
2017-07-03T08:14:09.843Z,18.1
2017-07-03T08:15:28.565Z,17.9
2017-07-03T08:16:47.243Z,17.9
2017-07-03T08:18:05.937Z,18
2017-07-03T08:19:24.604Z,17.9
2017-07-03T08:20:43.273Z,17.9
2017-07-03T08:22:01.947Z,17.8
2017-07-03T08:23:20.637Z,17.8
2017-07-03T08:24:39.315Z,17.8
2017-07-03T08:25:58.009Z,17.8
2017-07-03T08:27:16.715Z,17.7
2017-07-03T08:28:35.395Z,17.7
2017-07-03T08:29:54.116Z,17.6
2017-07-03T08:31:12.826Z,17.6
2017-07-03T08:32:31.548Z,17.6
2017-07-03T08:33:50.244Z,17.5
2017-07-03T08:35:08.943Z,17.6
2017-07-03T08:36:27.620Z,17.5
2017-07-03T08:37:46.336Z,17.4
2017-07-03T08:39:05.015Z,17.5
2017-07-03T08:40:23.724Z,17.8
2017-07-03T08:41:42.453Z,18
2017-07-03T08:43:01.151Z,18.4
2017-07-03T08:44:19.838Z,18.6
2017-07-03T08:45:38.581Z,18.7
2017-07-03T08:46:57.304Z,18.9
2017-07-03T08:48:16.033Z,19.1
2017-07-03T08:49:34.710Z,19.1
2017-07-03T08:50:53.385Z,19
2017-07-03T08:52:12.056Z,19
2017-07-03T08:53:30.780Z,18.9
2017-07-03T08:54:49.508Z,18.6
2017-07-03T08:56:08.218Z,18.2
2017-07-03T08:57:26.895Z,18.1
2017-07-03T08:58:45.570Z,18.1
2017-07-03T09:00:04.257Z,18.1
2017-07-03T09:01:22.931Z,18.3
2017-07-03T09:02:41.654Z,18.4
2017-07-03T09:04:00.347Z,18.5
2017-07-03T09:05:19.101Z,18.6
2017-07-03T09:06:37.810Z,18.5
2017-07-03T09:07:56.551Z,18.5
2017-07-03T09:09:15.224Z,18.5
2017-07-03T09:10:33.973Z,18.5
2017-07-03T09:11:52.655Z,18.7
2017-07-03T09:13:11.320Z,18.8
2017-07-03T09:14:29.988Z,18.9
2017-07-03T09:15:48.723Z,19
2017-07-03T09:17:07.456Z,19.1
2017-07-03T09:18:26.180Z,19
2017-07-03T09:19:44.846Z,18.8
2017-07-03T09:21:03.569Z,18.6
2017-07-03T09:22:22.253Z,18.4
2017-07-03T09:23:40.927Z,18.4
2017-07-03T09:24:59.603Z,18.4
2017-07-03T09:26:18.277Z,18.4
2017-07-03T09:27:37.011Z,18.4
2017-07-03T09:28:55.683Z,18.4
2017-07-03T09:30:14.381Z,18.5
2017-07-03T09:31:33.063Z,18.5
2017-07-03T09:32:51.724Z,18.5
2017-07-03T09:34:10.404Z,18.5
2017-07-03T09:35:29.131Z,18.5
2017-07-03T09:36:47.814Z,18.6
2017-07-03T09:38:06.488Z,18.6
2017-07-03T09:39:25.217Z,18.7
2017-07-03T09:40:43.929Z,18.9
2017-07-03T09:42:02.598Z,19
2017-07-03T09:43:21.305Z,19
2017-07-03T09:44:39.980Z,18.9
2017-07-03T09:45:58.661Z,19
2017-07-03T09:47:17.426Z,19
2017-07-03T09:48:36.146Z,19
2017-07-03T09:49:54.820Z,18.9
2017-07-03T09:51:13.516Z,18.8
2017-07-03T09:52:32.208Z,18.9
2017-07-03T09:53:50.888Z,19
2017-07-03T09:55:09.592Z,19.1
2017-07-03T09:56:28.275Z,19.1
2017-07-03T09:57:46.950Z,19
2017-07-03T09:59:05.620Z,19.1
2017-07-03T10:00:24.335Z,19.1
2017-07-03T10:01:43.065Z,19.1
2017-07-03T10:03:01.747Z,19.3
2017-07-03T10:04:20.418Z,19.4
2017-07-03T10:05:39.125Z,19.4
2017-07-03T10:06:57.861Z,19.4
2017-07-03T10:08:16.566Z,19.5
2017-07-03T10:09:35.291Z,19.6
2017-07-03T10:10:54.025Z,19.8
2017-07-03T10:12:12.770Z,20
2017-07-03T10:13:31.473Z,20.3
2017-07-03T10:14:50.149Z,20.5
2017-07-03T10:16:08.859Z,20.5
2017-07-03T10:17:27.583Z,20.5
2017-07-03T10:18:46.267Z,20.5
2017-07-03T10:20:04.993Z,20.5
2017-07-03T10:21:23.673Z,20.5
2017-07-03T10:22:42.431Z,20.5
2017-07-03T10:24:01.097Z,20.3
2017-07-03T10:25:19.780Z,20.1
2017-07-03T10:26:38.446Z,20
2017-07-03T10:27:57.122Z,20.1
2017-07-03T10:29:15.801Z,20
2017-07-03T10:30:34.500Z,19.9
2017-07-03T10:31:53.169Z,19.9
2017-07-03T10:33:11.858Z,20
2017-07-03T10:34:30.593Z,20.3
2017-07-03T10:35:49.310Z,20.7
2017-07-03T10:37:07.984Z,20.5
2017-07-03T10:38:26.677Z,20.2
2017-07-03T10:39:45.350Z,20
2017-07-03T10:41:04.049Z,19.9
2017-07-03T10:42:22.722Z,19.9
2017-07-03T10:43:41.401Z,19.9
2017-07-03T10:45:00.136Z,19.9
2017-07-03T10:46:18.893Z,19.8
2017-07-03T10:47:37.564Z,19.8
2017-07-03T10:48:56.268Z,19.7
2017-07-03T10:50:14.953Z,19.8
2017-07-03T10:51:33.633Z,19.9
2017-07-03T10:52:52.360Z,20
2017-07-03T10:54:11.044Z,20
2017-07-03T10:55:29.711Z,20
2017-07-03T10:56:48.380Z,20.1
2017-07-03T10:58:07.108Z,20.4
2017-07-03T10:59:25.798Z,20.7
2017-07-03T11:00:44.467Z,20.8
2017-07-03T11:02:03.186Z,20.9
2017-07-03T11:03:21.857Z,21.1
2017-07-03T11:04:40.587Z,21.3
2017-07-03T11:05:59.264Z,21.2
2017-07-03T11:07:17.934Z,21.2
2017-07-03T11:08:36.609Z,21.2
2017-07-03T11:09:55.345Z,21.2
2017-07-03T11:11:14.041Z,21.3
2017-07-03T11:12:32.715Z,21.2
2017-07-03T11:13:51.393Z,21.4
2017-07-03T11:15:10.073Z,21.5
2017-07-03T11:16:28.754Z,21.7
2017-07-03T11:17:47.436Z,21.8
2017-07-03T11:19:06.152Z,21.9
2017-07-03T11:20:24.861Z,22
2017-07-03T11:21:43.598Z,22
2017-07-03T11:23:02.321Z,22.1
2017-07-03T11:24:20.993Z,22.4
2017-07-03T11:25:39.734Z,22.6
2017-07-03T11:26:58.411Z,22.6
2017-07-03T11:28:17.079Z,22.5
2017-07-03T11:29:35.749Z,22.5
2017-07-03T11:30:54.459Z,22.6
2017-07-03T11:32:13.144Z,22.6
2017-07-03T11:33:31.848Z,22.5
2017-07-03T11:34:50.567Z,22.1
2017-07-03T11:36:09.319Z,21.8
2017-07-03T11:37:28.037Z,21.6
2017-07-03T11:38:46.751Z,21.5
2017-07-03T11:40:05.423Z,21.6
2017-07-03T11:41:24.144Z,21.8
2017-07-03T11:42:42.843Z,21.8
2017-07-03T11:44:01.562Z,21.8
2017-07-03T11:45:20.273Z,21.7
2017-07-03T11:46:39.057Z,21.8
2017-07-03T11:47:57.730Z,21.8
2017-07-03T11:49:16.462Z,21.9
2017-07-03T11:50:35.136Z,21.9
2017-07-03T11:51:53.847Z,22.2
2017-07-03T11:53:12.569Z,22.3
2017-07-03T11:54:31.281Z,22.7
2017-07-03T11:55:49.993Z,23.2
2017-07-03T11:57:08.687Z,23.9
2017-07-03T11:58:27.403Z,24.3
2017-07-03T11:59:46.080Z,25.3
2017-07-03T12:01:04.790Z,27.7
2017-07-03T12:02:23.470Z,32.5
2017-07-03T12:03:42.147Z,34.5
2017-07-03T12:05:00.875Z,35
2017-07-03T12:06:19.578Z,35.3
2017-07-03T12:07:38.318Z,35.5
2017-07-03T12:08:57.067Z,35.6
2017-07-03T12:10:15.741Z,35.8
2017-07-03T12:11:34.461Z,35.8
2017-07-03T12:12:53.147Z,35.9
2017-07-03T12:14:11.818Z,35.3
2017-07-03T12:15:30.481Z,34.9
2017-07-03T12:16:49.190Z,35.2
2017-07-03T12:18:07.863Z,35.5
2017-07-03T12:19:26.596Z,35.3
2017-07-03T12:20:45.321Z,35.6
2017-07-03T12:22:04.022Z,35.9
2017-07-03T12:23:22.716Z,36
2017-07-03T12:24:41.403Z,36.1
2017-07-03T12:26:00.103Z,36.1
2017-07-03T12:27:18.786Z,36.1
2017-07-03T12:28:37.489Z,36.1
2017-07-03T12:29:56.156Z,36.2
2017-07-03T12:31:14.830Z,36.3
2017-07-03T12:32:33.555Z,36.4
2017-07-03T12:33:52.244Z,36.5
2017-07-03T12:35:10.913Z,36.4
2017-07-03T12:36:29.616Z,36.4
2017-07-03T12:37:48.339Z,36.4
2017-07-03T12:39:07.025Z,36.5
2017-07-03T12:40:25.751Z,36.6
2017-07-03T12:41:44.451Z,36.7
2017-07-03T12:43:03.130Z,36.8
2017-07-03T12:44:21.817Z,36.9
2017-07-03T12:45:40.486Z,36.9
2017-07-03T12:46:59.188Z,37
2017-07-03T12:48:17.869Z,36.9
2017-07-03T12:49:36.597Z,36.9
2017-07-03T12:50:55.326Z,36.9
2017-07-03T12:52:14.078Z,36.9
2017-07-03T12:53:32.771Z,36.9
2017-07-03T12:54:51.464Z,36.9
2017-07-03T12:56:10.141Z,36.9
2017-07-03T12:57:28.835Z,36.7
2017-07-03T12:58:47.506Z,36.7
2017-07-03T13:00:06.182Z,36.7
2017-07-03T13:01:24.851Z,36.9
2017-07-03T13:02:43.569Z,37
2017-07-03T13:04:02.243Z,36.9
2017-07-03T13:05:20.987Z,36.7
2017-07-03T13:06:39.652Z,36.8
2017-07-03T13:07:58.316Z,36.9
2017-07-03T13:09:16.999Z,36.9
2017-07-03T13:10:35.715Z,36.8
2017-07-03T13:11:54.447Z,36.9
2017-07-03T13:13:13.142Z,37
2017-07-03T13:14:31.811Z,37
2017-07-03T13:15:50.507Z,37.2
2017-07-03T13:17:09.216Z,37
2017-07-03T13:18:27.886Z,37
2017-07-03T13:19:46.567Z,37
2017-07-03T13:21:05.263Z,37
2017-07-03T13:22:23.971Z,36.9
2017-07-03T13:23:42.653Z,37
2017-07-03T13:25:01.331Z,37
2017-07-03T13:26:20.012Z,37
2017-07-03T13:27:38.705Z,37
2017-07-03T13:28:57.413Z,37.1
2017-07-03T13:30:16.094Z,37.2
2017-07-03T13:31:34.784Z,37.2
2017-07-03T13:32:53.514Z,37.1
2017-07-03T13:34:12.192Z,37.2
2017-07-03T13:35:30.865Z,37.3
2017-07-03T13:36:49.590Z,37.2
2017-07-03T13:38:08.294Z,37.2
2017-07-03T13:39:26.973Z,37.2
2017-07-03T13:40:45.649Z,37.1
2017-07-03T13:42:04.368Z,37.1
2017-07-03T13:43:23.061Z,37.1
2017-07-03T13:44:41.786Z,36.8
2017-07-03T13:46:00.461Z,36.8
2017-07-03T13:47:19.154Z,36.9
2017-07-03T13:48:37.827Z,36.8
2017-07-03T13:49:56.501Z,36.7
2017-07-03T13:51:15.172Z,36.9
2017-07-03T13:52:33.886Z,37.1
2017-07-03T13:53:52.582Z,37.1
2017-07-03T13:55:11.258Z,37
2017-07-03T13:56:29.928Z,37
2017-07-03T13:57:48.618Z,37.1
2017-07-03T13:59:07.321Z,37.2
2017-07-03T14:00:25.999Z,37.3
2017-07-03T14:01:44.670Z,37.4
2017-07-03T14:03:03.405Z,37.3
2017-07-03T14:04:22.071Z,37.2
2017-07-03T14:05:40.742Z,37.2
2017-07-03T14:06:59.423Z,37.2
2017-07-03T14:08:18.136Z,37.3
2017-07-03T14:09:36.805Z,37.3
2017-07-03T14:10:55.473Z,37.4
2017-07-03T14:12:14.193Z,37.5
2017-07-03T14:13:32.905Z,37.3
2017-07-03T14:14:51.621Z,37.4
2017-07-03T14:16:10.360Z,37.4
2017-07-03T14:17:29.091Z,37.4
2017-07-03T14:18:47.785Z,37.4
2017-07-03T14:20:06.500Z,37.3
2017-07-03T14:21:25.172Z,37.3
2017-07-03T14:22:43.864Z,37.3
2017-07-03T14:24:02.590Z,37.3
2017-07-03T14:25:21.305Z,37.3
2017-07-03T14:26:40.045Z,37.3
2017-07-03T14:27:58.723Z,37.3
2017-07-03T14:29:17.433Z,37.3
2017-07-03T14:30:36.122Z,37.4
2017-07-03T14:31:54.803Z,37.3
2017-07-03T14:33:13.520Z,37.2
2017-07-03T14:34:32.241Z,37
2017-07-03T14:35:50.908Z,36.7
2017-07-03T14:37:09.577Z,36.6
2017-07-03T14:38:28.242Z,36.2
2017-07-03T14:39:46.918Z,35.8
2017-07-03T14:41:05.644Z,36.1
2017-07-03T14:42:24.341Z,36
2017-07-03T14:43:43.017Z,35.9
2017-07-03T14:45:01.702Z,35.9
2017-07-03T14:46:20.426Z,35.6
2017-07-03T14:47:39.119Z,35.1
2017-07-03T14:48:57.793Z,34.7
2017-07-03T14:50:16.528Z,34.4
2017-07-03T14:51:35.198Z,33
2017-07-03T14:52:53.894Z,31.5
2017-07-03T14:54:12.595Z,30.8
2017-07-03T14:55:31.293Z,30.6
2017-07-03T14:56:49.989Z,30.8
2017-07-03T14:58:08.668Z,30.7
2017-07-03T14:59:27.398Z,30.5
2017-07-03T15:00:46.120Z,30.1
2017-07-03T15:02:04.831Z,29.7
2017-07-03T15:03:23.530Z,29
2017-07-03T15:04:42.259Z,28.3
2017-07-03T15:06:00.955Z,28.1
2017-07-03T15:07:19.661Z,27.7
2017-07-03T15:08:38.332Z,27.2
2017-07-03T15:09:57.050Z,27.2
2017-07-03T15:11:15.732Z,27.5
2017-07-03T15:12:34.398Z,27.7
2017-07-03T15:13:53.107Z,27.4
2017-07-03T15:15:11.779Z,26.9
2017-07-03T15:16:30.469Z,27
2017-07-03T15:17:49.198Z,26.9
2017-07-03T15:19:07.887Z,26.8
2017-07-03T15:20:26.570Z,27
2017-07-03T15:21:45.313Z,27.2
2017-07-03T15:23:04.006Z,27.2
2017-07-03T15:24:22.669Z,27.5
2017-07-03T15:25:41.345Z,27.5
2017-07-03T15:27:00.057Z,27.4
2017-07-03T15:28:18.736Z,27
2017-07-03T15:29:37.442Z,26.9
2017-07-03T15:30:56.110Z,26.9
2017-07-03T15:32:14.797Z,27.1
2017-07-03T15:33:33.477Z,27.2
2017-07-03T15:34:52.198Z,27.1
2017-07-03T15:36:10.867Z,26.9
2017-07-03T15:37:29.574Z,26.7
2017-07-03T15:38:48.293Z,26.2
2017-07-03T15:40:06.992Z,26.1
2017-07-03T15:41:25.659Z,26.2
2017-07-03T15:42:44.359Z,26.2
2017-07-03T15:44:03.035Z,26.1
2017-07-03T15:45:21.701Z,26.1
2017-07-03T15:46:40.371Z,25.9
2017-07-03T15:47:59.082Z,25.9
2017-07-03T15:49:17.779Z,26.5
2017-07-03T15:50:36.506Z,27.3
2017-07-03T15:51:55.175Z,27.5
2017-07-03T15:53:13.921Z,28
2017-07-03T15:54:32.596Z,27.6
2017-07-03T15:55:51.291Z,27.2
2017-07-03T15:57:09.967Z,27.1
2017-07-03T15:58:28.711Z,27.1
2017-07-03T15:59:47.465Z,27.2
2017-07-03T16:01:06.143Z,27.8
2017-07-03T16:02:24.819Z,31.3
2017-07-03T16:03:43.559Z,34.5
2017-07-03T16:05:02.258Z,35.1
2017-07-03T16:06:20.941Z,35.3
2017-07-03T16:07:39.610Z,35.5
2017-07-03T16:08:58.298Z,35.6
2017-07-03T16:10:16.975Z,35.6
2017-07-03T16:11:35.650Z,35.5
2017-07-03T16:12:54.334Z,35
2017-07-03T16:14:13.088Z,34.7
2017-07-03T16:15:31.825Z,34.8
2017-07-03T16:16:50.498Z,35
2017-07-03T16:18:09.199Z,34.7
2017-07-03T16:19:27.883Z,33.8
2017-07-03T16:20:46.594Z,32.7
2017-07-03T16:22:05.326Z,31.8
2017-07-03T16:23:24.015Z,30.5
2017-07-03T16:24:42.702Z,29.2
2017-07-03T16:26:01.372Z,28.7
2017-07-03T16:27:20.057Z,28.6
2017-07-03T16:28:38.757Z,28
2017-07-03T16:29:57.460Z,27.7
2017-07-03T16:31:16.130Z,27.4
2017-07-03T16:32:34.862Z,27.3
2017-07-03T16:33:53.560Z,27.3
2017-07-03T16:35:12.300Z,27.3
2017-07-03T16:36:30.987Z,27.6
2017-07-03T16:37:49.672Z,27.9
2017-07-03T16:39:08.356Z,28.4
2017-07-03T16:40:27.049Z,28.7
2017-07-03T16:41:45.740Z,27.9
2017-07-03T16:43:04.412Z,27.2
2017-07-03T16:44:23.097Z,26.7
2017-07-03T16:45:41.785Z,26.5
2017-07-03T16:47:00.452Z,26.5
2017-07-03T16:48:19.178Z,26.4
2017-07-03T16:49:37.852Z,26
2017-07-03T16:50:56.587Z,25.7
2017-07-03T16:52:15.331Z,25.2
2017-07-03T16:53:34.025Z,24.8
2017-07-03T16:54:52.702Z,24.4
2017-07-03T16:56:11.380Z,24.3
2017-07-03T16:57:30.050Z,24.1
2017-07-03T16:58:48.729Z,24.1
2017-07-03T17:00:07.421Z,24.3
2017-07-03T17:01:26.102Z,24.6
2017-07-03T17:02:44.770Z,24.7
2017-07-03T17:04:03.440Z,24.6
2017-07-03T17:05:22.114Z,24.3
2017-07-03T17:06:40.805Z,24.1
2017-07-03T17:07:59.489Z,23.9
2017-07-03T17:09:18.157Z,23.9
2017-07-03T17:10:36.825Z,24
2017-07-03T17:11:55.544Z,24
2017-07-03T17:13:14.210Z,23.9
2017-07-03T17:14:32.882Z,24
2017-07-03T17:15:51.569Z,23.9
2017-07-03T17:17:10.309Z,23.6
2017-07-03T17:18:29.065Z,23.3
2017-07-03T17:19:47.733Z,23
2017-07-03T17:21:06.441Z,22.9
2017-07-03T17:22:25.114Z,22.9
2017-07-03T17:23:43.856Z,22.8
2017-07-03T17:25:02.580Z,22.9
2017-07-03T17:26:21.301Z,23
2017-07-03T17:27:39.989Z,23
2017-07-03T17:28:58.717Z,23.1
2017-07-03T17:30:17.420Z,23.2
2017-07-03T17:31:36.115Z,23.2
2017-07-03T17:32:54.845Z,23.1
2017-07-03T17:34:13.571Z,23
2017-07-03T17:35:32.244Z,22.9
2017-07-03T17:36:50.917Z,23
2017-07-03T17:38:09.684Z,23
2017-07-03T17:39:28.370Z,23.1
2017-07-03T17:40:47.042Z,23.3